Shanksville, Pennsylvania
Current Conditions -  °F | °C
As of 3:54 AM on Monday 20 Oct 2014 (Local Time) from KJST Reporting Station
Scattered Clouds Scattered Clouds  
Wind Chill: 38°   Ceiling: Unl
Heat Index: 43°   Visibility: 10mi
Dew Point: 31°   Wind: 9mph
Humidity: 62%   Direction: 240°WSW
Pressure: 30.03"   Gusts: NA
Location:  40.02°N, 78.91°W
Report Text: KJST 200754Z AUTO 24008KT 10SM SCT120 06/M01 A3003 RMK AO2 SLP177 T00611006
Loading
Personal Weather Stations






























Interactive Weather Map
Tropical Storm Tracking
New forecast layout! Learn more

10-Day Weather Forecast

Advertisements
Track Severe Weather on mobile